ENSB/LYR METAR and TAF weather

Enter ICAO airport designator
Station Type Date Time Source
ENSB METAR 2021/09/25 02:50 UTC NOAA

ENSB 250250Z 27002KT 9999 SCT045 BKN100 05/03 Q1000 RMK WIND 1400FT 12011KT


Station Type Date Time Source
ENSB Decoded METAR 2021/09/25 02:50 UTC NOAA

Svalbard Lufthavn, Norway (ENSB) 78-15N 015-28E 29M
Sep 24, 2021 - 10:50 PM EDT / 2021.09.25 0250 UTC
Wind: from the W (270 degrees) at 2 MPH (2 KT):0
Visibility: greater than 7 mile(s):0
Sky conditions: mostly cloudy
Temperature: 41 F (5 C)
Dew Point: 37 F (3 C)
Relative Humidity: 86%
Pressure (altimeter): 29.53 in. Hg (1000 hPa)
ob: ENSB 250250Z 27002KT 9999 SCT045 BKN100 05/03 Q1000 RMK WIND 1400FT 12011KT
cycle: 3

Station Type Date Time Source
ENSB TAF 2021/09/24 18:57 UTC NOAA

TAF ENSB 241700Z 2418/2518 13009KT 9999 FEW020 BKN030

Example: see airport list